createdAt,value
2022-12-17T00:00:58.477Z,88.55
2022-12-17T00:03:42.704Z,88.82
2022-12-17T00:06:26.885Z,88.77
2022-12-17T00:09:09.405Z,88.78
2022-12-17T00:11:52.968Z,88.65
2022-12-17T00:14:39.754Z,88.85
2022-12-17T00:17:24.315Z,88.81
2022-12-17T00:20:07.850Z,88.85
2022-12-17T00:22:51.407Z,88.71
2022-12-17T00:25:34.921Z,88.54
2022-12-17T00:28:18.448Z,88.76
2022-12-17T00:31:07.967Z,88.77
2022-12-17T00:33:51.472Z,88.80
2022-12-17T00:36:35.541Z,88.94
2022-12-17T00:39:20.092Z,88.92
2022-12-17T00:42:04.326Z,89.10
2022-12-17T00:44:47.858Z,89.06
2022-12-17T00:47:31.522Z,88.81
2022-12-17T00:50:15.019Z,88.98
2022-12-17T00:52:58.679Z,88.82
2022-12-17T00:55:42.311Z,88.77
2022-12-17T00:58:25.849Z,88.85
2022-12-17T01:01:15.005Z,88.94
2022-12-17T01:03:58.948Z,88.95
2022-12-17T01:06:42.993Z,89.04
2022-12-17T01:09:26.552Z,88.84
2022-12-17T01:12:10.179Z,88.86
2022-12-17T01:14:54.913Z,88.90
2022-12-17T01:17:38.577Z,88.94
2022-12-17T01:20:22.839Z,88.90
2022-12-17T01:23:06.482Z,88.88
2022-12-17T01:25:50.001Z,88.91
2022-12-17T01:28:42.359Z,88.88
2022-12-17T01:31:32.973Z,88.98
2022-12-17T01:34:18.742Z,89.01
2022-12-17T01:37:04.226Z,89.03
2022-12-17T01:39:47.761Z,88.97
2022-12-17T01:42:31.445Z,88.99
2022-12-17T01:45:16.367Z,89.05
2022-12-17T01:48:06.645Z,88.90
2022-12-17T01:50:53.536Z,89.02
2022-12-17T01:53:41.582Z,88.91
2022-12-17T01:56:26.689Z,88.93
2022-12-17T01:59:10.909Z,89.23
2022-12-17T02:01:55.150Z,88.90
2022-12-17T02:04:40.456Z,89.06
2022-12-17T02:07:33.442Z,88.99
2022-12-17T02:10:49.561Z,89.14
2022-12-17T02:13:40.949Z,89.14
2022-12-17T02:16:39.273Z,89.11
2022-12-17T02:19:47.233Z,88.82
2022-12-17T02:22:47.158Z,89.11
2022-12-17T02:25:44.630Z,89.03
2022-12-17T02:28:29.805Z,88.64
2022-12-17T02:31:14.794Z,88.90
2022-12-17T02:33:59.200Z,88.85
2022-12-17T02:36:42.641Z,88.68
2022-12-17T02:39:25.382Z,88.88
2022-12-17T02:42:11.334Z,88.73
2022-12-17T02:44:56.740Z,88.85
2022-12-17T02:47:40.358Z,88.86
2022-12-17T02:50:26.073Z,88.87
2022-12-17T02:53:10.703Z,88.98
2022-12-17T02:55:54.240Z,88.89
2022-12-17T02:58:37.895Z,89.03
2022-12-17T03:01:21.956Z,89.28
2022-12-17T03:04:05.785Z,89.32
2022-12-17T03:06:49.844Z,89.31
2022-12-17T03:09:33.356Z,89.36
2022-12-17T03:12:17.512Z,89.37
2022-12-17T03:15:01.155Z,89.38
2022-12-17T03:17:46.936Z,89.34
2022-12-17T03:20:30.888Z,89.19
2022-12-17T03:23:20.263Z,89.23
2022-12-17T03:26:03.779Z,89.00
2022-12-17T03:28:48.353Z,89.09
2022-12-17T03:31:31.990Z,89.20
2022-12-17T03:34:15.632Z,89.21
2022-12-17T03:36:59.276Z,89.26
2022-12-17T03:39:42.796Z,89.17
2022-12-17T03:42:25.380Z,88.93
2022-12-17T03:45:08.955Z,89.01
2022-12-17T03:47:52.586Z,89.00
2022-12-17T03:50:36.133Z,89.12
2022-12-17T03:53:20.784Z,89.11
2022-12-17T03:56:03.382Z,89.37
2022-12-17T03:58:46.938Z,89.35
2022-12-17T04:01:30.669Z,89.12
2022-12-17T04:04:13.394Z,89.15
2022-12-17T04:06:56.920Z,89.24
2022-12-17T04:09:39.417Z,89.39
2022-12-17T04:12:22.395Z,89.43
2022-12-17T04:15:05.992Z,89.34
2022-12-17T04:17:49.519Z,89.35
2022-12-17T04:20:33.212Z,89.70
2022-12-17T04:23:16.807Z,89.49
2022-12-17T04:25:59.527Z,89.32
2022-12-17T04:28:43.155Z,89.17
2022-12-17T04:31:26.831Z,89.25
2022-12-17T04:34:11.764Z,89.42
2022-12-17T04:36:56.223Z,89.32
2022-12-17T04:39:39.852Z,89.35
2022-12-17T04:42:22.388Z,89.48
2022-12-17T04:45:05.932Z,89.36
2022-12-17T04:47:48.488Z,89.39
2022-12-17T04:50:32.053Z,89.39
2022-12-17T04:53:19.475Z,89.62
2022-12-17T04:56:03.125Z,89.58
2022-12-17T04:58:47.281Z,89.46
2022-12-17T05:01:30.909Z,89.51
2022-12-17T05:04:14.646Z,89.38
2022-12-17T05:06:58.199Z,89.37
2022-12-17T05:09:41.827Z,89.19
2022-12-17T05:12:25.360Z,89.21
2022-12-17T05:15:08.980Z,89.35
2022-12-17T05:17:51.463Z,89.24
2022-12-17T05:20:35.034Z,89.41
2022-12-17T05:23:23.080Z,89.26
2022-12-17T05:26:26.572Z,89.21
2022-12-17T05:29:15.601Z,89.27
2022-12-17T05:31:59.456Z,89.43
2022-12-17T05:34:44.153Z,89.52
2022-12-17T05:37:27.693Z,89.42
2022-12-17T05:40:12.809Z,89.44
2022-12-17T05:42:56.602Z,89.48
2022-12-17T05:45:40.246Z,89.59
2022-12-17T05:48:23.879Z,89.54
2022-12-17T05:51:07.508Z,89.37
2022-12-17T05:53:51.472Z,89.34
2022-12-17T05:56:35.099Z,89.26
2022-12-17T05:59:18.622Z,89.48
2022-12-17T06:02:02.202Z,89.61
2022-12-17T06:04:45.896Z,89.70
2022-12-17T06:07:28.410Z,89.61
2022-12-17T06:10:11.957Z,89.64
2022-12-17T06:12:55.592Z,89.78
2022-12-17T06:15:40.822Z,89.66
2022-12-17T06:18:23.579Z,89.78
2022-12-17T06:21:08.357Z,89.64
2022-12-17T06:23:51.914Z,89.78
2022-12-17T06:26:35.970Z,89.94
2022-12-17T06:29:18.562Z,89.90
2022-12-17T06:32:02.194Z,89.87
2022-12-17T06:34:45.835Z,89.89
2022-12-17T06:37:29.469Z,89.88
2022-12-17T06:40:13.009Z,89.92
2022-12-17T06:42:56.644Z,90.02
2022-12-17T06:45:40.289Z,90.01
2022-12-17T06:48:25.239Z,90.18
2022-12-17T06:51:12.671Z,90.34
2022-12-17T06:53:57.525Z,90.15
2022-12-17T06:56:41.090Z,90.24
2022-12-17T06:59:24.718Z,90.09
2022-12-17T07:02:08.531Z,90.12
2022-12-17T07:04:52.187Z,90.29
2022-12-17T07:07:35.831Z,90.30
2022-12-17T07:10:20.188Z,90.36
2022-12-17T07:13:03.817Z,90.12
2022-12-17T07:15:47.302Z,90.33
2022-12-17T07:18:31.124Z,90.32
2022-12-17T07:21:14.741Z,90.23
2022-12-17T07:23:58.366Z,90.21
2022-12-17T07:26:41.891Z,90.23
2022-12-17T07:29:25.552Z,90.21
2022-12-17T07:32:09.196Z,90.09
2022-12-17T07:34:52.936Z,90.19
2022-12-17T07:37:35.545Z,90.14
2022-12-17T07:40:19.778Z,90.34
2022-12-17T07:43:03.326Z,90.27
2022-12-17T07:45:47.027Z,90.27
2022-12-17T07:48:30.902Z,90.36
2022-12-17T07:51:13.492Z,90.36
2022-12-17T07:53:57.234Z,90.42
2022-12-17T07:56:40.804Z,90.23
2022-12-17T07:59:24.636Z,90.51
2022-12-17T08:02:08.441Z,90.48
2022-12-17T08:04:52.236Z,90.58
2022-12-17T08:07:35.759Z,90.52
2022-12-17T08:10:19.817Z,90.49
2022-12-17T08:13:14.511Z,90.51
2022-12-17T08:15:58.614Z,90.60
2022-12-17T08:18:42.686Z,90.53
2022-12-17T08:21:26.228Z,90.64
2022-12-17T08:24:09.757Z,90.54
2022-12-17T08:26:53.290Z,90.53
2022-12-17T08:29:36.836Z,90.35
2022-12-17T08:32:20.485Z,90.58
2022-12-17T08:35:04.019Z,90.74
2022-12-17T08:37:47.651Z,90.47
2022-12-17T08:40:31.292Z,90.52
2022-12-17T08:43:15.030Z,90.40
2022-12-17T08:46:06.355Z,90.65
2022-12-17T08:48:50.401Z,90.66
2022-12-17T08:51:34.346Z,91.05
2022-12-17T08:54:17.992Z,90.74
2022-12-17T08:57:01.609Z,90.96
2022-12-17T08:59:45.132Z,90.95
2022-12-17T09:02:28.921Z,91.00
2022-12-17T09:05:12.841Z,90.91
2022-12-17T09:08:04.240Z,90.62
2022-12-17T09:10:47.815Z,90.54
2022-12-17T09:13:32.022Z,90.78
2022-12-17T09:16:22.927Z,91.11
2022-12-17T09:19:06.574Z,91.11
2022-12-17T09:21:50.219Z,91.19
2022-12-17T09:24:33.760Z,91.15
2022-12-17T09:27:16.376Z,91.20
2022-12-17T09:29:59.936Z,91.28
2022-12-17T09:32:43.640Z,91.16
2022-12-17T09:35:27.698Z,91.36
2022-12-17T09:38:12.649Z,91.22
2022-12-17T09:40:57.822Z,91.49
2022-12-17T09:43:55.812Z,91.26
2022-12-17T09:47:04.222Z,91.48
2022-12-17T09:49:47.351Z,91.51
2022-12-17T09:52:40.112Z,91.40
2022-12-17T09:55:41.763Z,91.49
2022-12-17T09:58:42.921Z,91.44
2022-12-17T10:01:34.314Z,91.61
2022-12-17T10:04:21.056Z,91.55
2022-12-17T10:07:04.696Z,91.52
2022-12-17T10:09:50.282Z,91.60
2022-12-17T10:12:36.143Z,91.66
2022-12-17T10:15:20.816Z,91.69
2022-12-17T10:18:04.458Z,91.63
2022-12-17T10:21:08.481Z,91.51
2022-12-17T10:23:52.105Z,91.42
2022-12-17T10:26:45.078Z,91.20
2022-12-17T10:29:34.944Z,91.34
2022-12-17T10:32:36.199Z,91.24
2022-12-17T10:35:36.446Z,91.07
2022-12-17T10:38:28.223Z,91.25
2022-12-17T10:41:12.116Z,91.18
2022-12-17T10:43:58.303Z,91.05
2022-12-17T10:46:47.785Z,91.15
2022-12-17T10:49:37.676Z,90.93
2022-12-17T10:52:37.458Z,91.12
2022-12-17T10:55:21.419Z,90.92
2022-12-17T10:58:07.314Z,90.89
2022-12-17T11:00:55.044Z,91.21
2022-12-17T11:03:44.868Z,90.77
2022-12-17T11:06:36.242Z,90.87
2022-12-17T11:09:32.578Z,90.83
2022-12-17T11:12:18.149Z,90.85
2022-12-17T11:15:08.153Z,90.61
2022-12-17T11:17:54.255Z,90.92
2022-12-17T11:20:44.652Z,90.99
2022-12-17T11:23:34.790Z,90.99
2022-12-17T11:26:28.289Z,91.13
2022-12-17T11:29:11.939Z,91.05
2022-12-17T11:31:58.697Z,90.99
2022-12-17T11:34:52.716Z,91.10
2022-12-17T11:37:41.505Z,91.06
2022-12-17T11:40:43.957Z,91.07
2022-12-17T11:43:49.228Z,90.34
2022-12-17T11:46:51.834Z,90.75
2022-12-17T11:49:48.799Z,90.48
2022-12-17T11:52:48.253Z,90.29
2022-12-17T11:56:01.276Z,90.43
2022-12-17T11:59:08.331Z,90.32
2022-12-17T12:01:57.489Z,90.45
2022-12-17T12:05:00.160Z,90.48
2022-12-17T12:08:20.024Z,90.76
2022-12-17T12:11:31.559Z,90.75
2022-12-17T12:14:32.015Z,91.15
2022-12-17T12:17:36.769Z,91.49
2022-12-17T12:20:40.397Z,91.42
2022-12-17T12:23:40.992Z,91.40
2022-12-17T12:26:31.049Z,91.52
2022-12-17T12:29:33.671Z,91.78
2022-12-17T12:32:39.367Z,91.72
2022-12-17T12:35:31.159Z,92.01
2022-12-17T12:38:16.770Z,92.19
2022-12-17T12:41:14.383Z,92.06
2022-12-17T12:44:05.854Z,92.16
2022-12-17T12:47:04.941Z,92.12
2022-12-17T12:50:05.579Z,92.11
2022-12-17T12:52:49.504Z,92.06
2022-12-17T12:55:33.173Z,92.24
2022-12-17T12:58:37.334Z,91.96
2022-12-17T13:01:21.371Z,92.11
2022-12-17T13:04:08.932Z,92.08
2022-12-17T13:06:45.768Z,91.98
2022-12-17T13:09:22.596Z,92.02
2022-12-17T13:12:02.412Z,91.93
2022-12-17T13:15:01.967Z,92.04
2022-12-17T13:17:39.658Z,91.96
2022-12-17T13:20:25.518Z,91.87
2022-12-17T13:23:06.413Z,92.08
2022-12-17T13:25:34.030Z,92.04
2022-12-17T13:28:02.236Z,91.90
2022-12-17T13:30:36.452Z,91.88
2022-12-17T13:33:31.367Z,91.89
2022-12-17T13:36:17.759Z,91.81
2022-12-17T13:38:54.129Z,91.64
2022-12-17T13:41:29.896Z,91.70
2022-12-17T13:44:02.159Z,91.73
2022-12-17T13:46:46.434Z,91.89
2022-12-17T13:49:22.452Z,91.67
2022-12-17T13:52:11.773Z,91.59
2022-12-17T13:54:39.768Z,91.34
2022-12-17T13:57:09.937Z,91.37
2022-12-17T13:59:38.106Z,91.49
2022-12-17T14:02:06.351Z,91.57
2022-12-17T14:04:34.051Z,91.55
2022-12-17T14:07:06.036Z,91.36
2022-12-17T14:09:38.976Z,90.91
2022-12-17T14:12:23.367Z,91.13
2022-12-17T14:14:57.947Z,91.26
2022-12-17T14:17:36.503Z,91.26
2022-12-17T14:20:11.545Z,91.16
2022-12-17T14:22:51.643Z,91.33
2022-12-17T14:25:26.018Z,91.43
2022-12-17T14:28:03.276Z,91.63
2022-12-17T14:30:46.167Z,91.59
2022-12-17T14:33:25.785Z,91.66
2022-12-17T14:35:58.610Z,91.75
2022-12-17T14:38:37.981Z,91.82
2022-12-17T14:41:34.633Z,91.65
2022-12-17T14:44:03.202Z,91.70
2022-12-17T14:46:32.934Z,91.93
2022-12-17T14:49:04.091Z,92.01
2022-12-17T14:51:38.246Z,91.98
2022-12-17T14:54:22.199Z,92.19
2022-12-17T14:56:50.544Z,92.37
2022-12-17T14:59:38.156Z,92.33
2022-12-17T15:02:18.115Z,92.30
2022-12-17T15:04:46.530Z,92.15
2022-12-17T15:07:18.182Z,92.49
2022-12-17T15:09:45.992Z,92.35
2022-12-17T15:12:14.694Z,92.50
2022-12-17T15:14:42.247Z,92.54
2022-12-17T15:17:09.817Z,92.54
2022-12-17T15:19:37.506Z,92.42
2022-12-17T15:22:05.353Z,92.56
2022-12-17T15:24:32.963Z,92.32
2022-12-17T15:27:00.763Z,92.40
2022-12-17T15:29:28.853Z,92.25
2022-12-17T15:31:56.470Z,92.05
2022-12-17T15:34:24.040Z,92.11
2022-12-17T15:36:51.575Z,92.13
2022-12-17T15:39:19.336Z,92.21
2022-12-17T15:42:02.954Z,92.27
2022-12-17T15:44:30.524Z,92.42
2022-12-17T15:46:58.094Z,92.66
2022-12-17T15:49:25.761Z,92.45
2022-12-17T15:51:53.296Z,92.54
2022-12-17T15:54:20.922Z,92.39
2022-12-17T15:56:53.843Z,92.52
2022-12-17T15:59:22.316Z,92.56
2022-12-17T16:01:50.199Z,92.49
2022-12-17T16:04:23.180Z,92.52
2022-12-17T16:06:53.004Z,92.72
2022-12-17T16:09:24.422Z,92.76
2022-12-17T16:11:56.472Z,92.69
2022-12-17T16:14:24.503Z,92.67
2022-12-17T16:16:52.099Z,92.89
2022-12-17T16:19:22.127Z,93.06
2022-12-17T16:21:50.076Z,92.95
2022-12-17T16:24:17.758Z,92.99
2022-12-17T16:26:45.508Z,93.12
2022-12-17T16:29:13.107Z,93.22
2022-12-17T16:31:40.836Z,93.14
2022-12-17T16:34:10.092Z,93.20
2022-12-17T16:36:37.955Z,93.22
2022-12-17T16:39:05.919Z,93.19
2022-12-17T16:41:34.586Z,93.29
2022-12-17T16:44:02.965Z,92.86
2022-12-17T16:46:36.205Z,92.89
2022-12-17T16:49:19.116Z,92.72
2022-12-17T16:51:49.928Z,92.80
2022-12-17T16:54:20.905Z,92.81
2022-12-17T16:56:49.719Z,92.92
2022-12-17T16:59:18.368Z,93.03
2022-12-17T17:01:48.566Z,93.08
2022-12-17T17:04:17.853Z,93.09
2022-12-17T17:06:51.361Z,93.24
2022-12-17T17:09:20.281Z,93.21
2022-12-17T17:11:51.789Z,93.05
2022-12-17T17:14:19.951Z,93.19
2022-12-17T17:16:47.501Z,93.34
2022-12-17T17:19:16.050Z,93.38
2022-12-17T17:21:50.595Z,93.31
2022-12-17T17:24:22.095Z,93.50
2022-12-17T17:26:51.755Z,93.34
2022-12-17T17:29:20.211Z,93.45
2022-12-17T17:34:36.912Z,93.49
2022-12-17T17:37:04.546Z,93.45
2022-12-17T17:39:34.013Z,93.58
2022-12-17T17:42:02.115Z,93.66
2022-12-17T17:44:29.671Z,93.53
2022-12-17T17:46:58.092Z,93.59
2022-12-17T17:49:25.772Z,93.56
2022-12-17T17:52:09.450Z,93.54
2022-12-17T17:54:40.115Z,93.64
2022-12-17T17:57:09.165Z,93.60
2022-12-17T17:59:39.184Z,93.72
2022-12-17T18:02:07.396Z,93.86
2022-12-17T18:04:35.329Z,93.67
2022-12-17T18:09:50.974Z,93.94
2022-12-17T18:12:34.660Z,93.89
2022-12-17T18:15:14.347Z,94.12
2022-12-17T18:17:50.288Z,94.20
2022-12-17T18:20:18.390Z,94.13
2022-12-17T18:22:47.071Z,94.22
2022-12-17T18:25:16.215Z,94.52
2022-12-17T18:27:44.497Z,94.51
2022-12-17T18:30:13.406Z,94.39
2022-12-17T18:32:42.179Z,94.49
2022-12-17T18:35:10.007Z,94.37
2022-12-17T18:37:38.331Z,94.45
2022-12-17T18:40:07.396Z,94.29
2022-12-17T18:42:52.388Z,94.44
2022-12-17T18:45:19.957Z,94.54
2022-12-17T18:47:47.885Z,94.79
2022-12-17T18:50:15.545Z,94.66
2022-12-17T18:52:43.109Z,94.84
2022-12-17T18:55:10.983Z,94.52
2022-12-17T18:57:38.638Z,94.43
2022-12-17T19:00:07.553Z,94.44
2022-12-17T19:02:35.326Z,94.51
2022-12-17T19:05:03.661Z,94.45
2022-12-17T19:07:31.234Z,94.57
2022-12-17T19:09:58.856Z,94.50
2022-12-17T19:12:26.523Z,94.64
2022-12-17T19:14:54.092Z,94.49
2022-12-17T19:17:21.754Z,94.50
2022-12-17T19:19:49.468Z,94.39
2022-12-17T19:22:17.097Z,94.72
2022-12-17T19:24:44.791Z,94.61
2022-12-17T19:27:12.371Z,94.49
2022-12-17T19:29:42.803Z,94.58
2022-12-17T19:32:12.782Z,94.67
2022-12-17T19:34:40.535Z,94.75
2022-12-17T19:37:08.117Z,95.00
2022-12-17T19:39:35.695Z,95.14
2022-12-17T19:42:03.391Z,95.28
2022-12-17T19:44:30.977Z,95.40
2022-12-17T19:46:58.676Z,95.40
2022-12-17T19:49:26.340Z,95.34
2022-12-17T19:51:54.126Z,95.22
2022-12-17T19:54:21.725Z,95.14
2022-12-17T19:56:49.298Z,95.28
2022-12-17T19:59:16.853Z,95.34
2022-12-17T20:01:47.804Z,95.25
2022-12-17T20:04:16.543Z,95.54
2022-12-17T20:06:45.619Z,95.60
2022-12-17T20:09:13.665Z,95.52
2022-12-17T20:11:41.308Z,95.44
2022-12-17T20:14:13.235Z,95.51
2022-12-17T20:16:48.139Z,95.51
2022-12-17T20:19:21.106Z,95.63
2022-12-17T20:21:49.339Z,95.71
2022-12-17T20:24:17.548Z,95.72
2022-12-17T20:26:48.942Z,95.68
2022-12-17T20:29:17.795Z,96.04
2022-12-17T20:31:49.552Z,95.90
2022-12-17T20:34:20.351Z,95.71
2022-12-17T20:36:48.379Z,96.11
2022-12-17T20:39:18.833Z,96.18
2022-12-17T20:41:51.422Z,96.19
2022-12-17T20:44:19.168Z,96.26
2022-12-17T20:46:46.739Z,96.38
2022-12-17T20:49:14.672Z,96.16
2022-12-17T20:51:42.446Z,96.35
2022-12-17T20:54:11.090Z,96.54
2022-12-17T20:56:39.855Z,96.60
2022-12-17T20:59:13.126Z,96.53
2022-12-17T21:01:41.267Z,96.75
2022-12-17T21:04:10.823Z,96.53
2022-12-17T21:06:40.286Z,96.46
2022-12-17T21:09:08.811Z,96.50
2022-12-17T21:11:38.398Z,96.54
2022-12-17T21:14:08.224Z,96.67
2022-12-17T21:16:37.670Z,96.55
2022-12-17T21:19:07.487Z,96.74
2022-12-17T21:21:37.466Z,96.33
2022-12-17T21:24:06.449Z,96.38
2022-12-17T21:26:36.920Z,96.41
2022-12-17T21:29:07.135Z,96.40
2022-12-17T21:31:56.957Z,96.27
2022-12-17T21:34:29.190Z,95.88
2022-12-17T21:36:56.942Z,96.00
2022-12-17T21:39:24.602Z,95.67
2022-12-17T21:42:09.385Z,95.90
2022-12-17T21:44:37.393Z,95.94
2022-12-17T21:47:05.395Z,95.83
2022-12-17T21:49:33.849Z,95.81
2022-12-17T21:52:02.899Z,95.80
2022-12-17T21:54:30.617Z,95.89
2022-12-17T21:56:58.235Z,95.69
2022-12-17T21:59:25.870Z,95.40
2022-12-17T22:01:57.196Z,95.57
2022-12-17T22:04:26.360Z,95.67
2022-12-17T22:06:59.350Z,95.59
2022-12-17T22:09:43.241Z,95.81
2022-12-17T22:12:43.191Z,95.79
2022-12-17T22:15:12.213Z,95.62
2022-12-17T22:17:42.079Z,95.42
2022-12-17T22:20:10.760Z,95.29
2022-12-17T22:22:38.457Z,95.39
2022-12-17T22:25:10.341Z,95.44
2022-12-17T22:27:40.711Z,95.43
2022-12-17T22:30:30.243Z,95.38
2022-12-17T22:33:02.330Z,95.68
2022-12-17T22:37:41.673Z,95.48
2022-12-17T22:40:24.405Z,95.78
2022-12-17T22:44:36.592Z,95.74
2022-12-17T22:44:45.555Z,95.47
2022-12-17T22:47:07.485Z,95.63
2022-12-17T22:49:35.080Z,95.59
2022-12-17T22:52:03.007Z,95.58
2022-12-17T22:54:30.925Z,95.54
2022-12-17T22:57:36.847Z,95.57
2022-12-17T22:59:46.539Z,95.52
2022-12-17T23:02:14.268Z,95.37
2022-12-17T23:04:42.549Z,95.20
2022-12-17T23:07:10.167Z,95.23
2022-12-17T23:09:37.764Z,95.40
2022-12-17T23:12:21.596Z,95.11
2022-12-17T23:14:49.202Z,95.34
2022-12-17T23:17:16.900Z,95.30
2022-12-17T23:19:44.483Z,95.09
2022-12-17T23:22:12.062Z,94.93
2022-12-17T23:24:39.753Z,95.22
2022-12-17T23:27:07.430Z,95.24
2022-12-17T23:29:35.112Z,95.35
2022-12-17T23:32:02.865Z,95.31
2022-12-17T23:34:30.429Z,95.62
2022-12-17T23:36:58.011Z,95.63
2022-12-17T23:39:25.786Z,95.61
2022-12-17T23:41:54.585Z,95.70
2022-12-17T23:44:22.196Z,95.78
2022-12-17T23:46:50.045Z,95.64
2022-12-17T23:49:17.779Z,95.56
2022-12-17T23:51:45.396Z,95.70
2022-12-17T23:54:13.107Z,95.48
2022-12-17T23:56:40.839Z,95.32
2022-12-17T23:59:09.494Z,95.22
